sensor_id;sensor_type;location;lat;lon;timestamp;pressure;altitude;pressure_sealevel;temperature;humidity
53526;BME280;40551;50.478;19.378;2023-01-28T00:01:43;98343.61;;;-1.95;75.66
53526;BME280;40551;50.478;19.378;2023-01-28T00:04:13;98344.09;;;-1.94;75.70
53526;BME280;40551;50.478;19.378;2023-01-28T00:06:45;98347.09;;;-1.97;75.81
53526;BME280;40551;50.478;19.378;2023-01-28T00:09:17;98347.32;;;-1.94;75.88
53526;BME280;40551;50.478;19.378;2023-01-28T00:11:47;98347.59;;;-1.92;75.86
53526;BME280;40551;50.478;19.378;2023-01-28T00:14:19;98346.77;;;-1.92;76.03
53526;BME280;40551;50.478;19.378;2023-01-28T00:16:49;98344.98;;;-1.89;75.93
53526;BME280;40551;50.478;19.378;2023-01-28T00:19:21;98345.95;;;-1.93;76.07
53526;BME280;40551;50.478;19.378;2023-01-28T00:21:53;98351.22;;;-1.94;76.01
53526;BME280;40551;50.478;19.378;2023-01-28T00:24:23;98353.42;;;-1.93;76.13
53526;BME280;40551;50.478;19.378;2023-01-28T00:26:55;98356.41;;;-1.97;76.21
53526;BME280;40551;50.478;19.378;2023-01-28T00:29:25;98352.98;;;-1.96;76.31
53526;BME280;40551;50.478;19.378;2023-01-28T00:31:57;98353.30;;;-2.01;76.37
53526;BME280;40551;50.478;19.378;2023-01-28T00:34:32;98357.52;;;-1.99;75.89
53526;BME280;40551;50.478;19.378;2023-01-28T00:37:02;98353.09;;;-1.99;76.11
53526;BME280;40551;50.478;19.378;2023-01-28T00:39:33;98355.92;;;-2.04;76.25
53526;BME280;40551;50.478;19.378;2023-01-28T00:42:04;98355.52;;;-2.01;76.24
53526;BME280;40551;50.478;19.378;2023-01-28T00:44:35;98354.78;;;-2.05;76.16
53526;BME280;40551;50.478;19.378;2023-01-28T00:47:08;98356.98;;;-2.04;76.16
53526;BME280;40551;50.478;19.378;2023-01-28T00:49:38;98358.31;;;-2.04;75.90
53526;BME280;40551;50.478;19.378;2023-01-28T00:52:11;98359.02;;;-2.10;75.75
53526;BME280;40551;50.478;19.378;2023-01-28T00:54:41;98356.09;;;-2.09;75.73
53526;BME280;40551;50.478;19.378;2023-01-28T00:57:13;98355.99;;;-2.12;75.75
53526;BME280;40551;50.478;19.378;2023-01-28T00:59:43;98353.23;;;-2.10;75.62
53526;BME280;40551;50.478;19.378;2023-01-28T01:02:15;98352.80;;;-2.13;75.57
53526;BME280;40551;50.478;19.378;2023-01-28T01:04:48;98355.23;;;-2.10;75.41
53526;BME280;40551;50.478;19.378;2023-01-28T01:07:29;98358.05;;;-2.06;75.48
53526;BME280;40551;50.478;19.378;2023-01-28T01:10:13;98362.11;;;-2.05;75.17
53526;BME280;40551;50.478;19.378;2023-01-28T01:12:46;98359.95;;;-2.07;75.19
53526;BME280;40551;50.478;19.378;2023-01-28T01:15:19;98359.06;;;-2.06;75.33
53526;BME280;40551;50.478;19.378;2023-01-28T01:17:51;98364.13;;;-2.05;75.24
53526;BME280;40551;50.478;19.378;2023-01-28T01:20:25;98366.38;;;-2.06;75.16
53526;BME280;40551;50.478;19.378;2023-01-28T01:22:57;98368.27;;;-2.07;75.09
53526;BME280;40551;50.478;19.378;2023-01-28T01:25:29;98368.97;;;-2.08;75.15
53526;BME280;40551;50.478;19.378;2023-01-28T01:27:59;98366.92;;;-2.08;75.17
53526;BME280;40551;50.478;19.378;2023-01-28T01:30:31;98368.92;;;-2.12;75.11
53526;BME280;40551;50.478;19.378;2023-01-28T01:33:01;98366.83;;;-2.10;75.30
53526;BME280;40551;50.478;19.378;2023-01-28T01:35:33;98368.76;;;-2.12;75.29
53526;BME280;40551;50.478;19.378;2023-01-28T01:38:05;98365.61;;;-2.15;75.42
53526;BME280;40551;50.478;19.378;2023-01-28T01:40:36;98370.77;;;-2.11;75.47
53526;BME280;40551;50.478;19.378;2023-01-28T01:43:14;98374.98;;;-2.10;75.34
53526;BME280;40551;50.478;19.378;2023-01-28T01:45:49;98370.63;;;-2.12;75.54
53526;BME280;40551;50.478;19.378;2023-01-28T01:48:29;98375.81;;;-2.10;75.54
53526;BME280;40551;50.478;19.378;2023-01-28T01:51:05;98377.96;;;-2.08;75.47
53526;BME280;40551;50.478;19.378;2023-01-28T01:53:41;98381.52;;;-2.07;75.40
53526;BME280;40551;50.478;19.378;2023-01-28T01:56:15;98383.84;;;-2.05;75.52
53526;BME280;40551;50.478;19.378;2023-01-28T01:58:50;98383.80;;;-2.03;75.48
53526;BME280;40551;50.478;19.378;2023-01-28T02:01:26;98383.08;;;-2.02;75.28
53526;BME280;40551;50.478;19.378;2023-01-28T02:04:02;98382.80;;;-2.04;75.21
53526;BME280;40551;50.478;19.378;2023-01-28T02:06:35;98375.42;;;-2.08;75.13
53526;BME280;40551;50.478;19.378;2023-01-28T02:09:22;98377.96;;;-2.07;75.24
53526;BME280;40551;50.478;19.378;2023-01-28T02:11:57;98375.20;;;-2.06;75.14
53526;BME280;40551;50.478;19.378;2023-01-28T02:14:31;98374.32;;;-2.05;75.33
53526;BME280;40551;50.478;19.378;2023-01-28T02:17:04;98375.27;;;-2.03;75.64
53526;BME280;40551;50.478;19.378;2023-01-28T02:19:38;98374.31;;;-1.98;75.41
53526;BME280;40551;50.478;19.378;2023-01-28T02:28:39;98385.80;;;-2.02;75.41
53526;BME280;40551;50.478;19.378;2023-01-28T02:31:16;98385.21;;;-1.99;75.60
53526;BME280;40551;50.478;19.378;2023-01-28T02:33:54;98380.81;;;-1.94;75.62
53526;BME280;40551;50.478;19.378;2023-01-28T02:36:32;98382.38;;;-1.89;75.58
53526;BME280;40551;50.478;19.378;2023-01-28T02:39:09;98381.88;;;-1.90;75.40
53526;BME280;40551;50.478;19.378;2023-01-28T02:41:47;98382.94;;;-1.91;75.32
53526;BME280;40551;50.478;19.378;2023-01-28T02:44:22;98386.58;;;-1.93;75.34
53526;BME280;40551;50.478;19.378;2023-01-28T02:46:55;98387.41;;;-1.93;75.53
53526;BME280;40551;50.478;19.378;2023-01-28T02:49:47;98387.22;;;-1.92;75.55
53526;BME280;40551;50.478;19.378;2023-01-28T02:52:30;98389.77;;;-1.92;75.53
53526;BME280;40551;50.478;19.378;2023-01-28T02:55:29;98388.80;;;-1.94;75.64
53526;BME280;40551;50.478;19.378;2023-01-28T02:58:07;98386.54;;;-1.92;75.78
53526;BME280;40551;50.478;19.378;2023-01-28T03:00:48;98387.02;;;-1.91;75.86
53526;BME280;40551;50.478;19.378;2023-01-28T03:03:27;98385.45;;;-1.90;75.91
53526;BME280;40551;50.478;19.378;2023-01-28T03:06:03;98389.17;;;-1.89;75.94
53526;BME280;40551;50.478;19.378;2023-01-28T03:08:42;98391.20;;;-1.88;75.86
53526;BME280;40551;50.478;19.378;2023-01-28T03:11:35;98390.15;;;-1.88;75.85
53526;BME280;40551;50.478;19.378;2023-01-28T03:14:26;98389.98;;;-1.88;75.68
53526;BME280;40551;50.478;19.378;2023-01-28T03:17:20;98391.67;;;-1.88;75.88
53526;BME280;40551;50.478;19.378;2023-01-28T03:20:12;98392.23;;;-1.89;75.84
53526;BME280;40551;50.478;19.378;2023-01-28T03:23:09;98396.77;;;-1.87;75.95
53526;BME280;40551;50.478;19.378;2023-01-28T03:26:02;98394.19;;;-1.87;76.06
53526;BME280;40551;50.478;19.378;2023-01-28T03:28:53;98393.06;;;-1.83;75.97
53526;BME280;40551;50.478;19.378;2023-01-28T03:31:43;98391.09;;;-1.80;75.78
53526;BME280;40551;50.478;19.378;2023-01-28T03:34:33;98387.48;;;-1.78;75.93
53526;BME280;40551;50.478;19.378;2023-01-28T03:37:22;98392.55;;;-1.77;75.91
53526;BME280;40551;50.478;19.378;2023-01-28T03:40:11;98388.69;;;-1.78;75.71
53526;BME280;40551;50.478;19.378;2023-01-28T03:42:42;98387.81;;;-1.78;75.82
53526;BME280;40551;50.478;19.378;2023-01-28T03:45:33;98381.17;;;-1.77;75.83
53526;BME280;40551;50.478;19.378;2023-01-28T03:48:06;98380.43;;;-1.75;75.99
53526;BME280;40551;50.478;19.378;2023-01-28T03:50:38;98384.00;;;-1.75;75.73
53526;BME280;40551;50.478;19.378;2023-01-28T03:53:09;98385.59;;;-1.77;75.38
53526;BME280;40551;50.478;19.378;2023-01-28T03:55:52;98384.38;;;-1.82;75.93
53526;BME280;40551;50.478;19.378;2023-01-28T03:58:26;98386.68;;;-1.80;75.83
53526;BME280;40551;50.478;19.378;2023-01-28T04:01:16;98378.66;;;-1.79;75.90
53526;BME280;40551;50.478;19.378;2023-01-28T04:03:48;98378.45;;;-1.78;75.88
53526;BME280;40551;50.478;19.378;2023-01-28T04:06:30;98381.28;;;-1.75;75.71
53526;BME280;40551;50.478;19.378;2023-01-28T04:09:34;98379.67;;;-1.73;75.75
53526;BME280;40551;50.478;19.378;2023-01-28T04:12:29;98383.63;;;-1.68;75.83
53526;BME280;40551;50.478;19.378;2023-01-28T04:15:01;98386.10;;;-1.66;75.92
53526;BME280;40551;50.478;19.378;2023-01-28T04:17:48;98383.64;;;-1.64;75.76
53526;BME280;40551;50.478;19.378;2023-01-28T04:20:39;98386.67;;;-1.62;75.60
53526;BME280;40551;50.478;19.378;2023-01-28T04:23:11;98389.55;;;-1.62;75.64
53526;BME280;40551;50.478;19.378;2023-01-28T04:25:41;98389.43;;;-1.64;75.29
53526;BME280;40551;50.478;19.378;2023-01-28T04:28:13;98394.55;;;-1.70;75.36
53526;BME280;40551;50.478;19.378;2023-01-28T04:30:43;98389.50;;;-1.71;75.42
53526;BME280;40551;50.478;19.378;2023-01-28T04:33:33;98388.67;;;-1.78;75.50
53526;BME280;40551;50.478;19.378;2023-01-28T04:36:26;98385.79;;;-1.78;75.62
53526;BME280;40551;50.478;19.378;2023-01-28T04:39:18;98387.30;;;-1.78;75.43
53526;BME280;40551;50.478;19.378;2023-01-28T04:42:08;98380.64;;;-1.76;75.72
53526;BME280;40551;50.478;19.378;2023-01-28T04:44:54;98382.76;;;-1.74;75.67
53526;BME280;40551;50.478;19.378;2023-01-28T04:47:40;98380.87;;;-1.73;75.49
53526;BME280;40551;50.478;19.378;2023-01-28T04:50:27;98386.14;;;-1.73;75.65
53526;BME280;40551;50.478;19.378;2023-01-28T04:53:19;98387.04;;;-1.74;75.54
53526;BME280;40551;50.478;19.378;2023-01-28T04:55:58;98386.02;;;-1.75;75.55
53526;BME280;40551;50.478;19.378;2023-01-28T04:58:33;98386.00;;;-1.74;75.45
53526;BME280;40551;50.478;19.378;2023-01-28T05:01:09;98381.63;;;-1.75;75.43
53526;BME280;40551;50.478;19.378;2023-01-28T05:03:39;98381.85;;;-1.77;75.43
53526;BME280;40551;50.478;19.378;2023-01-28T05:06:11;98390.06;;;-1.85;75.27
53526;BME280;40551;50.478;19.378;2023-01-28T05:08:47;98390.87;;;-1.89;75.44
53526;BME280;40551;50.478;19.378;2023-01-28T05:11:18;98396.84;;;-1.90;75.40
53526;BME280;40551;50.478;19.378;2023-01-28T05:13:54;98399.58;;;-1.96;75.36
53526;BME280;40551;50.478;19.378;2023-01-28T05:16:26;98401.14;;;-1.97;75.36
53526;BME280;40551;50.478;19.378;2023-01-28T05:18:56;98406.05;;;-1.97;75.41
53526;BME280;40551;50.478;19.378;2023-01-28T05:21:35;98405.56;;;-2.04;75.52
53526;BME280;40551;50.478;19.378;2023-01-28T05:24:10;98405.05;;;-2.04;75.40
53526;BME280;40551;50.478;19.378;2023-01-28T05:26:42;98411.48;;;-2.03;75.58
53526;BME280;40551;50.478;19.378;2023-01-28T05:29:14;98421.09;;;-2.00;75.67
53526;BME280;40551;50.478;19.378;2023-01-28T05:31:45;98426.27;;;-1.96;75.61
53526;BME280;40551;50.478;19.378;2023-01-28T05:34:18;98427.02;;;-1.99;75.78
53526;BME280;40551;50.478;19.378;2023-01-28T05:36:48;98434.19;;;-2.00;75.46
53526;BME280;40551;50.478;19.378;2023-01-28T05:39:34;98431.36;;;-2.09;75.48
53526;BME280;40551;50.478;19.378;2023-01-28T05:42:06;98435.17;;;-2.11;75.34
53526;BME280;40551;50.478;19.378;2023-01-28T05:44:42;98434.13;;;-2.16;75.51
53526;BME280;40551;50.478;19.378;2023-01-28T05:47:41;98439.13;;;-2.19;75.63
53526;BME280;40551;50.478;19.378;2023-01-28T05:50:38;98439.43;;;-2.18;75.85
53526;BME280;40551;50.478;19.378;2023-01-28T05:53:23;98441.66;;;-2.18;75.64
53526;BME280;40551;50.478;19.378;2023-01-28T05:55:56;98443.81;;;-2.17;75.77
53526;BME280;40551;50.478;19.378;2023-01-28T05:58:27;98450.92;;;-2.15;75.67
53526;BME280;40551;50.478;19.378;2023-01-28T06:01:05;98454.85;;;-2.16;75.66
53526;BME280;40551;50.478;19.378;2023-01-28T06:03:45;98457.40;;;-2.16;75.94
53526;BME280;40551;50.478;19.378;2023-01-28T06:06:15;98462.30;;;-2.15;75.83
53526;BME280;40551;50.478;19.378;2023-01-28T06:08:47;98458.96;;;-2.17;75.96
53526;BME280;40551;50.478;19.378;2023-01-28T06:11:25;98464.55;;;-2.17;75.68
53526;BME280;40551;50.478;19.378;2023-01-28T06:14:00;98469.17;;;-2.18;75.65
53526;BME280;40551;50.478;19.378;2023-01-28T06:16:44;98471.48;;;-2.22;75.62
53526;BME280;40551;50.478;19.378;2023-01-28T06:19:42;98471.23;;;-2.25;75.81
53526;BME280;40551;50.478;19.378;2023-01-28T06:22:14;98473.59;;;-2.25;75.89
53526;BME280;40551;50.478;19.378;2023-01-28T06:24:46;98477.44;;;-2.22;76.00
53526;BME280;40551;50.478;19.378;2023-01-28T06:27:16;98480.21;;;-2.24;75.72
53526;BME280;40551;50.478;19.378;2023-01-28T06:29:48;98484.36;;;-2.26;76.00
53526;BME280;40551;50.478;19.378;2023-01-28T06:32:18;98484.63;;;-2.25;76.07
53526;BME280;40551;50.478;19.378;2023-01-28T06:34:50;98482.84;;;-2.27;76.21
53526;BME280;40551;50.478;19.378;2023-01-28T06:37:20;98484.64;;;-2.25;76.00
53526;BME280;40551;50.478;19.378;2023-01-28T06:39:55;98489.02;;;-2.29;76.03
53526;BME280;40551;50.478;19.378;2023-01-28T06:42:25;98486.94;;;-2.27;76.29
53526;BME280;40551;50.478;19.378;2023-01-28T06:44:57;98489.36;;;-2.29;76.10
53526;BME280;40551;50.478;19.378;2023-01-28T06:47:27;98490.99;;;-2.27;75.98
53526;BME280;40551;50.478;19.378;2023-01-28T06:49:59;98489.73;;;-2.31;76.16
53526;BME280;40551;50.478;19.378;2023-01-28T06:52:29;98491.36;;;-2.28;76.26
53526;BME280;40551;50.478;19.378;2023-01-28T06:55:00;98492.07;;;-2.29;76.30
53526;BME280;40551;50.478;19.378;2023-01-28T06:57:31;98492.20;;;-2.27;75.91
53526;BME280;40551;50.478;19.378;2023-01-28T07:00:03;98496.02;;;-2.31;76.02
53526;BME280;40551;50.478;19.378;2023-01-28T07:02:34;98500.58;;;-2.29;76.00
53526;BME280;40551;50.478;19.378;2023-01-28T07:05:07;98503.03;;;-2.26;76.02
53526;BME280;40551;50.478;19.378;2023-01-28T07:07:39;98503.79;;;-2.23;76.04
53526;BME280;40551;50.478;19.378;2023-01-28T07:10:12;98504.06;;;-2.20;76.05
53526;BME280;40551;50.478;19.378;2023-01-28T07:12:44;98505.39;;;-2.18;75.53
53526;BME280;40551;50.478;19.378;2023-01-28T07:15:14;98506.46;;;-2.20;75.49
53526;BME280;40551;50.478;19.378;2023-01-28T07:17:46;98512.59;;;-2.28;75.25
53526;BME280;40551;50.478;19.378;2023-01-28T07:20:18;98509.91;;;-2.29;75.15
53526;BME280;40551;50.478;19.378;2023-01-28T07:22:50;98511.42;;;-2.29;75.50
53526;BME280;40551;50.478;19.378;2023-01-28T07:25:20;98514.59;;;-2.26;75.41
53526;BME280;40551;50.478;19.378;2023-01-28T07:27:52;98515.89;;;-2.31;75.51
53526;BME280;40551;50.478;19.378;2023-01-28T07:30:24;98520.11;;;-2.30;75.30
53526;BME280;40551;50.478;19.378;2023-01-28T07:32:57;98527.73;;;-2.29;75.29
53526;BME280;40551;50.478;19.378;2023-01-28T07:35:29;98531.64;;;-2.29;75.00
53526;BME280;40551;50.478;19.378;2023-01-28T07:38:02;98529.34;;;-2.32;75.03
53526;BME280;40551;50.478;19.378;2023-01-28T07:40:33;98529.50;;;-2.31;74.93
53526;BME280;40551;50.478;19.378;2023-01-28T07:43:03;98527.77;;;-2.31;74.96
53526;BME280;40551;50.478;19.378;2023-01-28T07:45:40;98524.27;;;-2.33;75.29
53526;BME280;40551;50.478;19.378;2023-01-28T07:48:13;98528.45;;;-2.30;75.12
53526;BME280;40551;50.478;19.378;2023-01-28T07:50:44;98525.70;;;-2.29;75.07
53526;BME280;40551;50.478;19.378;2023-01-28T07:53:18;98529.69;;;-2.25;75.22
53526;BME280;40551;50.478;19.378;2023-01-28T07:55:49;98538.77;;;-2.21;75.23
53526;BME280;40551;50.478;19.378;2023-01-28T07:58:21;98542.78;;;-2.19;75.02
53526;BME280;40551;50.478;19.378;2023-01-28T08:00:54;98545.42;;;-2.16;75.19
53526;BME280;40551;50.478;19.378;2023-01-28T08:03:27;98544.05;;;-2.16;75.35
53526;BME280;40551;50.478;19.378;2023-01-28T08:05:59;98545.30;;;-2.11;75.12
53526;BME280;40551;50.478;19.378;2023-01-28T08:08:29;98548.52;;;-2.11;74.99
53526;BME280;40551;50.478;19.378;2023-01-28T08:11:07;98547.44;;;-2.15;75.01
53526;BME280;40551;50.478;19.378;2023-01-28T08:13:40;98551.09;;;-2.11;75.16
53526;BME280;40551;50.478;19.378;2023-01-28T08:16:10;98553.14;;;-2.06;75.17
53526;BME280;40551;50.478;19.378;2023-01-28T08:18:42;98551.80;;;-2.07;75.34
53526;BME280;40551;50.478;19.378;2023-01-28T08:21:12;98553.36;;;-2.01;75.19
53526;BME280;40551;50.478;19.378;2023-01-28T08:23:43;98559.17;;;-2.02;75.25
53526;BME280;40551;50.478;19.378;2023-01-28T08:26:14;98557.52;;;-1.97;74.98
53526;BME280;40551;50.478;19.378;2023-01-28T08:28:45;98564.59;;;-2.01;74.53
53526;BME280;40551;50.478;19.378;2023-01-28T08:31:20;98559.76;;;-2.05;74.42
53526;BME280;40551;50.478;19.378;2023-01-28T08:33:51;98561.61;;;-2.04;74.24
53526;BME280;40551;50.478;19.378;2023-01-28T08:36:22;98560.63;;;-1.99;74.75
53526;BME280;40551;50.478;19.378;2023-01-28T08:38:54;98563.84;;;-1.98;74.61
53526;BME280;40551;50.478;19.378;2023-01-28T08:41:26;98566.16;;;-1.96;74.47
53526;BME280;40551;50.478;19.378;2023-01-28T08:43:56;98562.84;;;-1.93;74.47
53526;BME280;40551;50.478;19.378;2023-01-28T08:46:28;98560.64;;;-1.93;74.50
53526;BME280;40551;50.478;19.378;2023-01-28T08:48:58;98558.95;;;-1.88;74.31
53526;BME280;40551;50.478;19.378;2023-01-28T08:51:30;98554.06;;;-1.89;74.53
53526;BME280;40551;50.478;19.378;2023-01-28T08:54:00;98553.43;;;-1.84;74.50
53526;BME280;40551;50.478;19.378;2023-01-28T08:56:32;98552.82;;;-1.87;74.27
53526;BME280;40551;50.478;19.378;2023-01-28T08:59:02;98554.73;;;-1.82;74.33
53526;BME280;40551;50.478;19.378;2023-01-28T09:01:34;98554.75;;;-1.82;74.38
53526;BME280;40551;50.478;19.378;2023-01-28T09:04:06;98555.75;;;-1.75;74.47
53526;BME280;40551;50.478;19.378;2023-01-28T09:06:38;98557.91;;;-1.67;74.54
53526;BME280;40551;50.478;19.378;2023-01-28T09:09:08;98559.80;;;-1.62;74.39
53526;BME280;40551;50.478;19.378;2023-01-28T09:11:40;98563.66;;;-1.67;74.13
53526;BME280;40551;50.478;19.378;2023-01-28T09:14:11;98563.20;;;-1.68;74.32
53526;BME280;40551;50.478;19.378;2023-01-28T09:16:42;98565.31;;;-1.65;74.62
53526;BME280;40551;50.478;19.378;2023-01-28T09:19:13;98567.60;;;-1.67;74.81
53526;BME280;40551;50.478;19.378;2023-01-28T09:21:45;98568.75;;;-1.65;74.71
53526;BME280;40551;50.478;19.378;2023-01-28T09:24:17;98570.50;;;-1.61;74.79
53526;BME280;40551;50.478;19.378;2023-01-28T09:26:50;98574.41;;;-1.61;74.40
53526;BME280;40551;50.478;19.378;2023-01-28T09:29:22;98576.37;;;-1.65;74.48
53526;BME280;40551;50.478;19.378;2023-01-28T09:31:52;98581.73;;;-1.68;74.42
53526;BME280;40551;50.478;19.378;2023-01-28T09:34:24;98582.54;;;-1.73;74.88
53526;BME280;40551;50.478;19.378;2023-01-28T09:36:54;98584.85;;;-1.70;74.90
53526;BME280;40551;50.478;19.378;2023-01-28T09:39:26;98579.02;;;-1.74;75.01
53526;BME280;40551;50.478;19.378;2023-01-28T09:42:08;98580.05;;;-1.69;75.00
53526;BME280;40551;50.478;19.378;2023-01-28T09:44:56;98580.44;;;-1.64;75.18
53526;BME280;40551;50.478;19.378;2023-01-28T09:47:34;98584.84;;;-1.57;75.13
53526;BME280;40551;50.478;19.378;2023-01-28T09:50:14;98578.95;;;-1.52;74.99
53526;BME280;40551;50.478;19.378;2023-01-28T09:52:46;98578.56;;;-1.51;74.80
53526;BME280;40551;50.478;19.378;2023-01-28T09:55:18;98575.05;;;-1.54;74.58
53526;BME280;40551;50.478;19.378;2023-01-28T09:57:54;98573.66;;;-1.59;74.91
53526;BME280;40551;50.478;19.378;2023-01-28T10:00:31;98576.11;;;-1.55;74.89
53526;BME280;40551;50.478;19.378;2023-01-28T10:03:17;98574.41;;;-1.55;74.71
53526;BME280;40551;50.478;19.378;2023-01-28T10:05:57;98569.23;;;-1.58;74.84
53526;BME280;40551;50.478;19.378;2023-01-28T10:08:37;98571.17;;;-1.55;75.32
53526;BME280;40551;50.478;19.378;2023-01-28T10:11:37;98570.45;;;-1.53;74.93
53526;BME280;40551;50.478;19.378;2023-01-28T10:14:19;98567.73;;;-1.53;74.90
53526;BME280;40551;50.478;19.378;2023-01-28T10:16:58;98563.37;;;-1.55;74.85
53526;BME280;40551;50.478;19.378;2023-01-28T10:19:38;98560.70;;;-1.58;74.87
53526;BME280;40551;50.478;19.378;2023-01-28T10:22:14;98564.92;;;-1.56;74.95
53526;BME280;40551;50.478;19.378;2023-01-28T10:24:49;98560.41;;;-1.60;74.65
53526;BME280;40551;50.478;19.378;2023-01-28T10:27:27;98562.77;;;-1.59;74.72
53526;BME280;40551;50.478;19.378;2023-01-28T10:30:14;98563.86;;;-1.61;74.58
53526;BME280;40551;50.478;19.378;2023-01-28T10:32:52;98563.63;;;-1.59;74.97
53526;BME280;40551;50.478;19.378;2023-01-28T10:35:24;98561.75;;;-1.52;75.26
53526;BME280;40551;50.478;19.378;2023-01-28T10:38:00;98556.08;;;-1.44;75.38
53526;BME280;40551;50.478;19.378;2023-01-28T10:40:37;98555.06;;;-1.39;75.07
53526;BME280;40551;50.478;19.378;2023-01-28T10:43:11;98558.23;;;-1.36;75.03
53526;BME280;40551;50.478;19.378;2023-01-28T10:45:42;98559.82;;;-1.32;74.97
53526;BME280;40551;50.478;19.378;2023-01-28T10:48:21;98560.48;;;-1.32;74.86
53526;BME280;40551;50.478;19.378;2023-01-28T10:50:55;98563.27;;;-1.28;74.88
53526;BME280;40551;50.478;19.378;2023-01-28T10:53:36;98565.92;;;-1.26;74.71
53526;BME280;40551;50.478;19.378;2023-01-28T10:56:10;98565.72;;;-1.30;74.40
53526;BME280;40551;50.478;19.378;2023-01-28T10:58:58;98560.38;;;-1.28;74.94
53526;BME280;40551;50.478;19.378;2023-01-28T11:01:42;98559.71;;;-1.22;74.82
53526;BME280;40551;50.478;19.378;2023-01-28T11:04:21;98563.46;;;-1.17;74.55
53526;BME280;40551;50.478;19.378;2023-01-28T11:06:58;98560.52;;;-1.09;75.08
53526;BME280;40551;50.478;19.378;2023-01-28T11:09:31;98563.20;;;-1.02;74.92
53526;BME280;40551;50.478;19.378;2023-01-28T11:12:16;98560.89;;;-0.99;74.94
53526;BME280;40551;50.478;19.378;2023-01-28T11:14:54;98556.72;;;-0.96;74.81
53526;BME280;40551;50.478;19.378;2023-01-28T11:17:28;98556.23;;;-0.97;74.41
53526;BME280;40551;50.478;19.378;2023-01-28T11:20:10;98550.90;;;-0.96;74.83
53526;BME280;40551;50.478;19.378;2023-01-28T11:22:45;98551.52;;;-0.94;74.60
53526;BME280;40551;50.478;19.378;2023-01-28T11:25:21;98554.02;;;-0.92;74.78
53526;BME280;40551;50.478;19.378;2023-01-28T11:27:57;98553.77;;;-0.89;74.61
53526;BME280;40551;50.478;19.378;2023-01-28T11:30:32;98551.83;;;-0.87;74.76
53526;BME280;40551;50.478;19.378;2023-01-28T11:33:13;98547.48;;;-0.83;74.73
53526;BME280;40551;50.478;19.378;2023-01-28T11:35:55;98547.16;;;-0.84;74.74
53526;BME280;40551;50.478;19.378;2023-01-28T11:38:27;98540.58;;;-0.81;74.87
53526;BME280;40551;50.478;19.378;2023-01-28T11:40:57;98539.24;;;-0.82;74.44
53526;BME280;40551;50.478;19.378;2023-01-28T11:43:31;98537.39;;;-0.88;74.63
53526;BME280;40551;50.478;19.378;2023-01-28T11:46:15;98541.92;;;-0.85;74.81
53526;BME280;40551;50.478;19.378;2023-01-28T11:48:56;98541.85;;;-0.83;74.88
53526;BME280;40551;50.478;19.378;2023-01-28T11:51:35;98536.40;;;-0.83;74.65
53526;BME280;40551;50.478;19.378;2023-01-28T11:54:18;98540.16;;;-0.83;74.70
53526;BME280;40551;50.478;19.378;2023-01-28T11:57:03;98541.17;;;-0.83;74.63
53526;BME280;40551;50.478;19.378;2023-01-28T11:59:52;98542.25;;;-0.86;74.54
53526;BME280;40551;50.478;19.378;2023-01-28T12:02:46;98543.14;;;-0.86;74.68
53526;BME280;40551;50.478;19.378;2023-01-28T12:05:41;98540.95;;;-0.88;74.53
53526;BME280;40551;50.478;19.378;2023-01-28T12:08:21;98541.52;;;-0.90;75.03
53526;BME280;40551;50.478;19.378;2023-01-28T12:11:11;98537.45;;;-0.90;75.12
53526;BME280;40551;50.478;19.378;2023-01-28T12:13:56;98535.92;;;-0.90;74.89
53526;BME280;40551;50.478;19.378;2023-01-28T12:16:43;98533.88;;;-0.90;75.02
53526;BME280;40551;50.478;19.378;2023-01-28T12:19:27;98532.79;;;-0.88;75.26
53526;BME280;40551;50.478;19.378;2023-01-28T12:22:18;98529.52;;;-0.81;75.32
53526;BME280;40551;50.478;19.378;2023-01-28T12:25:10;98525.86;;;-0.73;75.45
53526;BME280;40551;50.478;19.378;2023-01-28T12:27:51;98522.91;;;-0.66;75.41
53526;BME280;40551;50.478;19.378;2023-01-28T12:30:39;98524.77;;;-0.60;75.34
53526;BME280;40551;50.478;19.378;2023-01-28T12:36:23;98525.31;;;-0.56;75.35
53526;BME280;40551;50.478;19.378;2023-01-28T12:39:06;98528.23;;;-0.51;75.29
53526;BME280;40551;50.478;19.378;2023-01-28T12:41:44;98532.09;;;-0.49;75.00
53526;BME280;40551;50.478;19.378;2023-01-28T12:44:23;98533.84;;;-0.51;74.97
53526;BME280;40551;50.478;19.378;2023-01-28T12:46:59;98536.17;;;-0.54;74.48
53526;BME280;40551;50.478;19.378;2023-01-28T12:49:36;98535.70;;;-0.61;74.37
53526;BME280;40551;50.478;19.378;2023-01-28T12:52:14;98530.80;;;-0.62;74.85
53526;BME280;40551;50.478;19.378;2023-01-28T12:54:54;98528.45;;;-0.58;75.10
53526;BME280;40551;50.478;19.378;2023-01-28T12:57:30;98526.20;;;-0.57;74.81
53526;BME280;40551;50.478;19.378;2023-01-28T13:00:17;98532.06;;;-0.54;74.82
53526;BME280;40551;50.478;19.378;2023-01-28T13:02:57;98536.36;;;-0.55;74.57
53526;BME280;40551;50.478;19.378;2023-01-28T13:05:37;98534.66;;;-0.55;74.59
53526;BME280;40551;50.478;19.378;2023-01-28T13:08:14;98533.63;;;-0.55;74.64
53526;BME280;40551;50.478;19.378;2023-01-28T13:10:48;98538.74;;;-0.55;74.61
53526;BME280;40551;50.478;19.378;2023-01-28T13:13:31;98539.82;;;-0.52;74.83
53526;BME280;40551;50.478;19.378;2023-01-28T13:16:08;98535.59;;;-0.47;74.75
53526;BME280;40551;50.478;19.378;2023-01-28T13:18:47;98543.14;;;-0.43;74.65
53526;BME280;40551;50.478;19.378;2023-01-28T13:21:31;98541.79;;;-0.44;74.47
53526;BME280;40551;50.478;19.378;2023-01-28T13:24:31;98538.95;;;-0.46;74.33
53526;BME280;40551;50.478;19.378;2023-01-28T13:27:19;98536.99;;;-0.43;74.65
53526;BME280;40551;50.478;19.378;2023-01-28T13:30:01;98545.65;;;-0.42;74.20
53526;BME280;40551;50.478;19.378;2023-01-28T13:32:34;98548.73;;;-0.42;74.34
53526;BME280;40551;50.478;19.378;2023-01-28T13:35:27;98551.85;;;-0.44;74.02
53526;BME280;40551;50.478;19.378;2023-01-28T13:38:07;98552.15;;;-0.43;74.36
53526;BME280;40551;50.478;19.378;2023-01-28T13:40:40;98555.02;;;-0.42;74.15
53526;BME280;40551;50.478;19.378;2023-01-28T13:43:34;98554.73;;;-0.43;74.08
53526;BME280;40551;50.478;19.378;2023-01-28T13:46:10;98553.31;;;-0.42;74.23
53526;BME280;40551;50.478;19.378;2023-01-28T13:48:45;98554.95;;;-0.39;74.32
53526;BME280;40551;50.478;19.378;2023-01-28T13:51:23;98555.77;;;-0.39;74.29